Time;durP1;ratioP1;P1;durP2;ratioP2;P2;SDS_P1;SDS_P2;PMS_P1;PMS_P2;Temp;Humidity;BMP_temperature;BMP_pressure;BME280_temperature;BME280_humidity;BME280_pressure;Samples;Min_cycle;Max_cycle;Signal;HPM_P1;HPM_P2
2021/07/28 00:00:28;;;;;;;15.33;11.93;;;;;;;20.79;77.98;98223.89;125851;1097;22774;-80
2021/07/28 00:03:14;;;;;;;13.45;11.75;;;;;;;20.79;78.15;98215.59;125807;1096;22777;-80
2021/07/28 00:05:41;;;;;;;18.28;12.10;;;;;;;20.80;78.46;98220.77;125838;1097;22794;-80
2021/07/28 00:08:08;;;;;;;13.15;11.30;;;;;;;20.83;78.36;98216.57;126405;1096;22822;-80
2021/07/28 00:10:35;;;;;;;18.98;13.13;;;;;;;20.84;78.70;98215.41;126268;1097;22813;-80
2021/07/28 00:13:02;;;;;;;18.85;12.30;;;;;;;20.84;78.62;98213.48;125951;1096;22804;-80
2021/07/28 00:15:29;;;;;;;15.67;10.00;;;;;;;20.83;78.26;98216.57;125825;1097;26441;-80
2021/07/28 00:18:03;;;;;;;17.93;9.30;;;;;;;20.80;77.94;98212.47;125900;1097;22820;-80
2021/07/28 00:23:28;;;;;;;15.80;9.85;;;;;;;20.61;77.67;98207.19;125562;1095;22770;-80
2021/07/28 00:25:55;;;;;;;22.63;10.93;;;;;;;20.54;78.13;98204.03;126046;1096;22822;-80
2021/07/28 00:28:25;;;;;;;17.00;10.23;;;;;;;20.50;78.33;98200.24;125940;1096;22803;-80
2021/07/28 00:30:52;;;;;;;14.63;11.60;;;;;;;20.50;78.71;98200.24;125519;1096;22800;-80
2021/07/28 00:33:24;;;;;;;17.70;11.65;;;;;;;20.51;78.86;98201.89;125523;1096;22825;-80
2021/07/28 00:35:54;;;;;;;20.53;12.77;;;;;;;20.47;79.37;98200.90;126020;1096;26251;-80
2021/07/28 00:38:25;;;;;;;19.25;13.55;;;;;;;20.43;79.59;98197.11;125616;1095;22950;-80
2021/07/28 00:40:52;;;;;;;16.78;13.33;;;;;;;20.42;79.46;98203.80;125462;1096;22790;-80
2021/07/28 00:43:24;;;;;;;17.68;12.55;;;;;;;20.42;79.79;98196.30;125925;1095;22931;-80
2021/07/28 00:45:51;;;;;;;20.05;13.03;;;;;;;20.43;80.24;98192.42;125595;1096;22803;-80
2021/07/28 00:48:18;;;;;;;16.08;10.38;;;;;;;20.43;79.64;98194.34;125458;1096;22781;-80
2021/07/28 00:50:45;;;;;;;21.60;11.10;;;;;;;20.41;79.40;98182.79;125981;1096;22800;-80
2021/07/28 00:53:19;;;;;;;20.23;10.70;;;;;;;20.39;78.63;98185.06;125636;1095;27189;-80
2021/07/28 00:56:03;;;;;;;19.55;10.98;;;;;;;20.35;79.17;98189.59;125559;1096;24418;-80
2021/07/28 00:58:31;;;;;;;16.80;11.27;;;;;;;20.31;78.74;98189.41;125953;1096;22778;-80
2021/07/28 01:00:58;;;;;;;15.75;9.05;;;;;;;20.23;78.43;98188.20;125506;1096;27198;-80
2021/07/28 01:03:25;;;;;;;16.63;8.93;;;;;;;20.14;78.23;98183.77;125564;1096;23048;-80
2021/07/28 01:05:58;;;;;;;22.68;10.05;;;;;;;19.93;78.09;98172.39;126064;1097;22774;-80
2021/07/28 01:08:29;;;;;;;16.73;11.33;;;;;;;19.83;78.94;98178.97;125474;1096;22906;-80
2021/07/28 01:10:57;;;;;;;19.28;12.58;;;;;;;19.78;79.77;98177.16;125987;1097;22772;-80
2021/07/28 01:13:28;;;;;;;21.45;13.70;;;;;;;19.79;80.30;98173.25;125509;1097;22776;-80
2021/07/28 01:16:22;;;;;;;18.43;12.27;;;;;;;19.81;80.61;98175.70;125986;1097;26679;-80
2021/07/28 01:18:51;;;;;;;16.15;12.08;;;;;;;19.87;80.88;98171.70;125492;1097;25883;-80
2021/07/28 01:21:19;;;;;;;;;;;;;;;19.88;80.73;98171.39;125466;1096;26239;-79
2021/07/28 01:24:02;;;;;;;20.70;11.73;;;;;;;19.89;80.36;98169.44;125539;1096;21537;-80
2021/07/28 01:26:30;;;;;;;16.90;11.10;;;;;;;19.80;79.65;98174.09;126029;1097;22774;-79
2021/07/28 01:28:57;;;;;;;25.05;10.75;;;;;;;19.66;79.33;98174.09;125964;1097;24572;-79
2021/07/28 01:31:26;;;;;;;17.63;10.07;;;;;;;19.48;79.55;98168.41;125919;1096;22800;-80
2021/07/28 01:34:12;;;;;;;27.45;10.80;;;;;;;19.35;79.93;98174.77;125430;1097;26312;-80
2021/07/28 01:36:45;;;;;;;15.20;10.55;;;;;;;19.25;80.44;98172.26;125498;1095;22957;-79
2021/07/28 01:39:12;;;;;;;20.68;12.38;;;;;;;19.26;80.79;98169.16;125550;1096;24422;-79
2021/07/28 01:42:00;;;;;;;18.78;12.58;;;;;;;19.27;81.17;98170.00;125994;1097;27306;-79
2021/07/28 01:44:28;;;;;;;24.38;12.18;;;;;;;19.26;81.29;98171.92;125556;1096;22867;-79
2021/07/28 01:46:55;;;;;;;23.95;12.70;;;;;;;19.28;81.63;98172.45;126022;1097;22800;-79
2021/07/28 01:49:24;;;;;;;20.55;12.68;;;;;;;19.29;81.74;98168.55;125508;1096;22776;-79
2021/07/28 01:51:54;;;;;;;24.07;13.33;;;;;;;19.29;81.72;98162.22;125478;1095;26385;-80
2021/07/28 01:54:21;;;;;;;19.35;12.80;;;;;;;19.32;82.13;98162.41;125597;1097;24119;-80
2021/07/28 01:56:47;;;;;;;23.78;14.33;;;;;;;19.37;82.44;98155.14;126000;1097;22828;-80
2021/07/28 01:59:16;;;;;;;19.58;15.25;;;;;;;19.40;83.00;98147.05;125416;1096;24486;-80
2021/07/28 02:01:43;;;;;;;20.50;14.65;;;;;;;19.45;83.24;98152.45;125439;1097;26265;-80
2021/07/28 02:04:09;;;;;;;23.08;15.95;;;;;;;19.53;83.47;98161.97;125391;1096;27207;-80
2021/07/28 02:06:36;;;;;;;21.23;15.40;;;;;;;19.62;83.55;98164.78;125495;1096;22781;-80
2021/07/28 02:09:06;;;;;;;27.03;11.90;;;;;;;19.58;81.81;98161.02;125503;1096;22796;-80
2021/07/28 02:11:34;;;;;;;25.18;13.25;;;;;;;19.45;81.94;98170.98;125585;1096;26380;-80
2021/07/28 02:14:01;;;;;;;18.57;13.13;;;;;;;19.34;81.95;98167.63;125987;1097;22826;-80
2021/07/28 02:16:30;;;;;;;20.15;13.28;;;;;;;19.23;82.04;98166.20;125987;1096;22772;-80
2021/07/28 02:18:57;;;;;;;20.73;12.10;;;;;;;19.18;82.27;98171.86;125504;1095;22803;-80
2021/07/28 02:21:23;;;;;;;21.90;13.53;;;;;;;19.16;82.47;98170.22;125504;1095;22797;-79
2021/07/28 02:23:51;;;;;;;23.50;14.30;;;;;;;19.21;82.87;98162.94;126446;1097;22796;-79
2021/07/28 02:26:21;;;;;;;20.90;16.43;;;;;;;19.25;83.30;98159.26;125522;1096;25992;-79
2021/07/28 02:28:47;;;;;;;21.80;15.30;;;;;;;19.31;83.58;98163.53;125477;1096;27623;-79
2021/07/28 02:31:29;;;;;;;21.10;15.73;;;;;;;19.38;83.78;98157.59;125425;1096;22858;-79
2021/07/28 02:33:57;;;;;;;24.30;15.85;;;;;;;19.43;83.54;98165.77;125965;1097;22825;-79
2021/07/28 02:36:24;;;;;;;22.58;15.88;;;;;;;19.50;83.51;98157.06;125500;1096;22844;-79
2021/07/28 02:38:55;;;;;;;21.65;15.83;;;;;;;19.54;83.31;98147.82;125511;1096;24456;-79
2021/07/28 02:41:21;;;;;;;24.93;18.40;;;;;;;19.54;83.45;98147.82;125545;1095;27003;-79
2021/07/28 02:43:48;;;;;;;25.08;17.95;;;;;;;19.56;83.82;98155.80;126023;1097;27437;-79
2021/07/28 02:46:15;;;;;;;26.38;15.88;;;;;;;19.57;83.72;98157.45;125535;1097;22874;-80
2021/07/28 02:48:42;;;;;;;19.33;15.33;;;;;;;19.60;83.59;98140.26;125445;1097;22938;-79
2021/07/28 02:51:09;;;;;;;26.50;16.53;;;;;;;19.62;83.55;98143.52;125460;1097;22856;-79
2021/07/28 02:53:36;;;;;;;22.90;16.18;;;;;;;19.65;83.45;98150.35;125412;1097;22797;-79
2021/07/28 02:56:03;;;;;;;29.47;15.13;;;;;;;19.65;83.35;98147.59;125535;1096;22785;-79
2021/07/28 02:58:30;;;;;;;20.23;14.77;;;;;;;19.65;83.36;98148.40;125535;1096;24500;-80
2021/07/28 03:00:58;;;;;;;18.08;14.10;;;;;;;19.66;83.19;98155.57;125535;1096;27208;-79
2021/07/28 03:03:25;;;;;;;22.17;14.07;;;;;;;19.65;83.43;98151.16;125492;1097;22872;-79
2021/07/28 03:05:55;;;;;;;25.48;14.88;;;;;;;19.61;83.26;98160.40;125461;1097;24476;-80
2021/07/28 03:08:22;;;;;;;22.45;15.33;;;;;;;19.60;83.27;98159.59;125516;1097;22796;-80
2021/07/28 03:10:49;;;;;;;23.95;14.48;;;;;;;19.57;83.29;98164.92;125450;1097;22755;-79
2021/07/28 03:13:17;;;;;;;24.33;13.83;;;;;;;19.58;83.48;98161.83;125489;1097;22800;-80
2021/07/28 03:15:50;;;;;;;20.65;13.30;;;;;;;19.61;83.49;98161.21;125443;1097;24423;-80
2021/07/28 03:18:17;;;;;;;23.98;13.58;;;;;;;19.60;82.60;98167.04;125388;1096;22810;-80
2021/07/28 03:20:46;;;;;;;22.28;13.10;;;;;;;19.56;82.05;98164.09;125464;1096;22829;-81
2021/07/28 03:23:13;;;;;;;23.13;13.23;;;;;;;19.44;81.09;98166.58;125527;1097;22800;-80
2021/07/28 03:25:39;;;;;;;37.15;12.98;;;;;;;19.33;81.69;98161.27;125399;1096;22800;-80
2021/07/28 03:28:06;;;;;;;20.65;11.50;;;;;;;19.31;81.84;98162.72;125502;1095;27479;-80
2021/07/28 03:30:33;;;;;;;20.35;12.50;;;;;;;19.33;82.07;98175.08;126011;1097;24454;-80
2021/07/28 03:33:00;;;;;;;28.23;13.60;;;;;;;19.39;82.15;98173.05;125479;1096;23345;-80
2021/07/28 03:35:27;;;;;;;18.90;13.13;;;;;;;19.41;82.01;98178.27;125966;1095;22999;-80
2021/07/28 03:37:55;;;;;;;18.37;12.20;;;;;;;19.40;82.74;98182.95;125411;1097;22776;-80
2021/07/28 03:40:25;;;;;;;19.30;12.35;;;;;;;19.42;82.00;98188.97;125969;1097;24457;-80
2021/07/28 03:42:52;;;;;;;19.45;12.38;;;;;;;19.40;81.80;98184.90;125952;1097;22867;-80
2021/07/28 03:45:19;;;;;;;21.88;12.98;;;;;;;19.35;81.97;98185.81;125535;1097;26258;-80
2021/07/28 03:48:01;;;;;;;16.40;12.38;;;;;;;19.35;82.57;98185.81;125631;1096;26411;-80
2021/07/28 03:50:31;;;;;;;23.68;13.48;;;;;;;19.42;83.00;98185.41;125987;1097;22773;-80
2021/07/28 03:53:02;;;;;;;18.13;12.30;;;;;;;19.45;83.25;98170.98;125950;1097;22773;-80
2021/07/28 03:55:29;;;;;;;18.70;11.68;;;;;;;19.51;83.49;98187.13;125995;1097;25769;-80
2021/07/28 03:57:59;;;;;;;18.53;11.63;;;;;;;19.55;83.51;98181.80;125523;1096;22942;-80
2021/07/28 04:00:29;;;;;;;19.30;12.88;;;;;;;19.61;83.67;98190.79;125539;1096;22803;-80
2021/07/28 04:02:56;;;;;;;23.47;14.07;;;;;;;19.64;83.98;98187.41;125554;1096;26264;-80
2021/07/28 04:05:23;;;;;;;24.20;14.03;;;;;;;19.65;84.58;98189.84;125763;1096;24478;-80
2021/07/28 04:07:59;;;;;;;16.05;9.35;;;;;;;19.60;84.88;98217.61;126192;1096;24457;-81
2021/07/28 04:10:37;;;;;;;14.53;5.05;;;;;;;19.56;85.02;98180.66;125673;1096;22771;-80
2021/07/28 04:13:26;;;;;;;6.65;3.45;;;;;;;19.57;85.22;98164.92;125992;1096;22817;-81
2021/07/28 04:16:03;;;;;;;6.30;2.47;;;;;;;19.56;85.54;98157.75;125571;1097;24457;-81
2021/07/28 04:18:44;;;;;;;6.45;3.20;;;;;;;19.56;85.70;98141.98;126099;1097;25996;-81
2021/07/28 04:21:11;;;;;;;6.48;2.73;;;;;;;19.53;85.54;98128.83;125548;1096;22803;-81
2021/07/28 04:23:38;;;;;;;7.53;3.25;;;;;;;19.51;85.42;98120.01;125771;1096;27271;-80
2021/07/28 04:26:25;;;;;;;7.05;3.85;;;;;;;19.52;85.21;98121.66;125445;1096;22777;-80
2021/07/28 04:28:57;;;;;;;4.43;2.90;;;;;;;19.54;84.18;98122.96;125543;1096;26251;-80
2021/07/28 04:31:28;;;;;;;5.55;2.55;;;;;;;19.58;83.22;98127.87;126034;1096;22776;-80
2021/07/28 04:33:55;;;;;;;4.13;2.70;;;;;;;19.61;83.06;98117.02;125497;1096;22930;-80
2021/07/28 04:36:27;;;;;;;3.90;2.80;;;;;;;19.61;83.63;98113.44;125416;1096;22951;-80
2021/07/28 04:39:30;;;;;;;6.30;3.30;;;;;;;19.62;83.32;98104.01;126021;1096;22773;-80
2021/07/28 04:42:03;;;;;;;7.48;3.13;;;;;;;19.64;83.79;98107.30;125907;1096;23671;-80
2021/07/28 04:44:29;;;;;;;6.95;3.30;;;;;;;19.68;83.78;98108.30;125829;1096;22595;-81
2021/07/28 04:46:56;;;;;;;7.18;3.13;;;;;;;19.73;83.98;98113.70;125873;1096;27352;-81
2021/07/28 04:49:23;;;;;;;5.63;3.35;;;;;;;19.77;83.97;98111.96;126274;1096;22953;-81
2021/07/28 04:51:50;;;;;;;6.03;4.20;;;;;;;19.84;83.60;98120.63;125844;1097;26274;-81
2021/07/28 04:54:32;;;;;;;8.95;4.53;;;;;;;19.83;83.53;98116.25;126034;1095;22834;-81
2021/07/28 04:57:13;;;;;;;8.83;4.90;;;;;;;19.79;83.43;98106.94;125728;1097;22861;-81
2021/07/28 04:59:40;;;;;;;11.50;4.95;;;;;;;19.79;83.89;98097.84;126291;1096;25884;-81
2021/07/28 05:02:07;;;;;;;9.83;5.40;;;;;;;19.78;83.89;98104.48;125746;1096;27590;-81
2021/07/28 05:04:33;;;;;;;12.20;6.00;;;;;;;19.80;84.32;98108.58;126267;1096;26376;-81
2021/07/28 05:07:00;;;;;;;10.68;5.93;;;;;;;19.83;84.14;98107.95;125822;1095;22928;-81
2021/07/28 05:09:27;;;;;;;15.60;6.98;;;;;;;19.83;84.10;98099.67;126328;1096;22784;-81
2021/07/28 05:11:54;;;;;;;13.33;6.60;;;;;;;19.89;83.94;98100.34;126310;1096;27147;-81
2021/07/28 05:14:21;;;;;;;11.60;6.53;;;;;;;19.95;84.27;98104.60;125836;1095;26341;-81
2021/07/28 05:16:47;;;;;;;13.25;7.55;;;;;;;20.05;84.32;98095.25;126275;1096;28563;-81
2021/07/28 05:19:14;;;;;;;15.60;8.00;;;;;;;20.12;84.13;98092.84;125870;1096;22886;-81
2021/07/28 05:21:42;;;;;;;13.20;7.28;;;;;;;20.17;84.47;98095.48;125817;1096;22777;-81
2021/07/28 05:24:08;;;;;;;15.93;6.98;;;;;;;20.27;84.47;98094.38;126212;1096;22828;-81
2021/07/28 05:26:35;;;;;;;9.90;6.53;;;;;;;20.39;84.28;98088.25;125689;1096;22957;-81
2021/07/28 05:29:02;;;;;;;13.10;7.20;;;;;;;20.42;83.71;98085.67;126216;1096;22789;-81
2021/07/28 05:31:29;;;;;;;11.33;7.40;;;;;;;20.51;83.35;98082.94;125923;1096;23615;-81
2021/07/28 05:33:56;;;;;;;12.05;6.73;;;;;;;20.57;84.03;98080.84;126378;1096;22823;-81
2021/07/28 05:36:23;;;;;;;8.90;6.65;;;;;;;20.63;83.97;98080.41;126260;1097;22858;-81
2021/07/28 05:38:49;;;;;;;8.50;6.10;;;;;;;20.67;84.03;98077.81;126233;1096;26264;-81
2021/07/28 05:41:16;;;;;;;7.03;4.95;;;;;;;20.75;84.26;98093.64;126355;1096;22773;-82
2021/07/28 05:43:43;;;;;;;11.53;5.08;;;;;;;20.85;84.01;98090.55;125758;1096;27192;-82
2021/07/28 05:46:25;;;;;;;7.60;5.15;;;;;;;21.01;84.31;98092.88;126264;1096;22858;-82
2021/07/28 05:48:52;;;;;;;9.70;6.03;;;;;;;21.13;84.18;98093.05;125843;1097;22771;-82
2021/07/28 05:51:33;;;;;;;8.45;5.63;;;;;;;21.21;84.12;98083.95;125940;1096;22891;-82
2021/07/28 05:54:00;;;;;;;10.88;6.53;;;;;;;21.30;83.93;98100.58;126284;1096;22878;-82
2021/07/28 05:56:28;;;;;;;9.17;5.90;;;;;;;21.41;83.41;98098.30;125872;1095;22858;-81
2021/07/28 05:58:55;;;;;;;12.15;6.80;;;;;;;21.51;83.30;98094.41;126406;1096;27297;-81
2021/07/28 06:01:22;;;;;;;8.90;6.25;;;;;;;21.59;82.95;98088.87;125844;1097;22773;-81
2021/07/28 06:03:49;;;;;;;10.00;6.65;;;;;;;21.65;82.90;98081.20;125874;1097;26267;-81
2021/07/28 06:06:16;;;;;;;11.05;6.80;;;;;;;21.71;82.72;98084.61;125758;1097;22807;-81
2021/07/28 06:08:43;;;;;;;10.83;6.90;;;;;;;21.74;82.61;98084.80;126225;1096;24599;-81
2021/07/28 06:11:10;;;;;;;14.95;7.05;;;;;;;21.77;82.03;98086.89;125842;1096;22808;-81
2021/07/28 06:13:51;;;;;;;14.03;7.88;;;;;;;21.82;82.27;98083.14;125741;1097;22810;-81
2021/07/28 06:16:18;;;;;;;16.38;8.55;;;;;;;21.86;82.61;98091.62;126328;1095;22772;-81
2021/07/28 06:18:45;;;;;;;17.18;8.25;;;;;;;21.93;82.69;98086.38;126212;1096;22821;-81
2021/07/28 06:21:12;;;;;;;11.45;7.53;;;;;;;22.02;82.52;98097.45;125814;1097;22864;-81
2021/07/28 06:23:54;;;;;;;12.25;8.68;;;;;;;22.08;82.10;98101.67;126223;1096;22778;-81
2021/07/28 06:26:20;;;;;;;15.55;9.83;;;;;;;22.15;81.91;98096.44;126020;1096;22822;-81
2021/07/28 06:28:47;;;;;;;15.20;9.58;;;;;;;22.20;81.31;98096.26;126040;1096;22758;-81
2021/07/28 06:31:14;;;;;;;14.60;9.73;;;;;;;22.25;81.26;98087.77;126207;1096;22790;-81
2021/07/28 06:33:41;;;;;;;15.05;10.00;;;;;;;22.30;81.00;98092.36;126033;1096;22821;-82
2021/07/28 06:36:09;;;;;;;19.08;10.20;;;;;;;22.34;80.31;98093.31;125980;1096;22768;-81
2021/07/28 06:38:36;;;;;;;17.85;11.28;;;;;;;22.38;80.08;98088.72;126441;1095;22793;-81
2021/07/28 06:41:02;;;;;;;18.73;10.93;;;;;;;22.45;80.24;98086.27;126501;1096;22799;-82
2021/07/28 06:43:29;;;;;;;17.55;12.73;;;;;;;22.52;79.56;98089.34;126265;1096;22860;-81
2021/07/28 06:46:00;;;;;;;19.80;12.98;;;;;;;22.56;79.29;98092.27;126491;1096;22815;-81
2021/07/28 06:48:42;;;;;;;17.83;12.18;;;;;;;22.60;79.37;98090.44;126017;1097;22793;-81
2021/07/28 06:51:09;;;;;;;15.85;11.43;;;;;;;22.60;79.44;98087.66;126419;1096;22774;-81
2021/07/28 06:53:35;;;;;;;18.05;11.95;;;;;;;22.66;79.30;98088.28;126021;1096;22790;-81
2021/07/28 06:56:02;;;;;;;16.80;11.90;;;;;;;22.71;79.06;98079.77;125841;1096;22770;-82
2021/07/28 06:58:29;;;;;;;17.38;11.53;;;;;;;22.77;78.72;98083.17;126029;1095;22770;-81
2021/07/28 07:00:58;;;;;;;13.78;11.43;;;;;;;22.83;78.37;98079.06;125466;1096;22782;-81
2021/07/28 07:03:25;;;;;;;14.70;10.48;;;;;;;22.92;78.21;98086.18;125622;1097;22797;-82
2021/07/28 07:05:53;;;;;;;18.70;10.40;;;;;;;23.01;77.87;98086.13;126035;1096;22813;-82
2021/07/28 07:08:20;;;;;;;18.88;10.78;;;;;;;23.03;77.75;98086.60;126010;1096;23392;-82
2021/07/28 07:10:47;;;;;;;15.47;11.70;;;;;;;23.10;78.58;98083.33;125622;1095;23222;-82
2021/07/28 07:13:14;;;;;;;14.47;9.60;;;;;;;23.13;78.03;98080.69;125993;1096;22828;-82
2021/07/28 07:15:41;;;;;;;14.87;9.10;;;;;;;23.22;77.01;98079.83;125508;1096;25855;-82
2021/07/28 07:18:07;;;;;;;17.48;9.45;;;;;;;23.31;76.79;98072.23;126057;1096;26261;-82
2021/07/28 07:20:34;;;;;;;15.87;9.00;;;;;;;23.39;75.09;98064.97;126101;1096;27167;-82
2021/07/28 07:23:01;;;;;;;17.67;9.53;;;;;;;23.43;74.68;98069.52;126032;1095;22825;-82
2021/07/28 07:25:28;;;;;;;11.90;8.10;;;;;;;23.49;74.63;98067.34;125560;1096;22928;-82
2021/07/28 07:27:55;;;;;;;15.30;8.50;;;;;;;23.57;74.53;98066.46;126110;1096;22777;-82
2021/07/28 07:30:22;;;;;;;16.20;8.63;;;;;;;23.66;74.12;98063.61;125578;1097;22770;-82
2021/07/28 07:33:37;;;;;;;13.90;8.57;;;;;;;23.72;74.09;98065.00;125563;1097;22822;-82
2021/07/28 07:35:36;;;;;;;13.20;7.68;;;;;;;23.78;73.26;98060.04;126236;1095;22937;-82
2021/07/28 07:38:17;;;;;;;13.23;7.70;;;;;;;23.87;72.84;98063.59;126069;1097;24475;-82
2021/07/28 07:40:44;;;;;;;19.50;8.03;;;;;;;23.93;72.25;98055.84;126062;1096;27304;-82
2021/07/28 07:43:25;;;;;;;10.50;7.00;;;;;;;24.02;71.11;98062.13;125701;1096;27306;-82
2021/07/28 07:45:55;;;;;;;10.73;6.85;;;;;;;24.08;70.23;98060.73;126047;1095;22776;-82
2021/07/28 07:48:23;;;;;;;13.10;7.23;;;;;;;24.14;70.37;98059.37;126065;1096;22782;-82
2021/07/28 07:50:50;;;;;;;8.53;6.33;;;;;;;24.20;70.18;98057.17;126098;1096;22773;-82
2021/07/28 07:53:17;;;;;;;9.65;6.43;;;;;;;24.27;70.19;98049.06;125607;1095;22758;-82
2021/07/28 07:55:44;;;;;;;8.75;5.98;;;;;;;24.38;69.86;98046.64;126070;1096;26254;-82
2021/07/28 07:58:11;;;;;;;7.93;5.48;;;;;;;24.50;69.46;98038.30;126285;1096;22824;-82
2021/07/28 08:00:38;;;;;;;10.77;5.57;;;;;;;24.60;68.24;98035.09;126299;1096;27297;-82
2021/07/28 08:03:05;;;;;;;9.95;5.88;;;;;;;24.72;68.50;98034.27;125922;1096;24168;-82
2021/07/28 08:05:32;;;;;;;11.85;6.10;;;;;;;24.88;67.30;98033.55;126614;1096;22791;-82
2021/07/28 08:07:59;;;;;;;13.47;5.63;;;;;;;25.03;65.90;98032.83;126342;1096;22795;-82
2021/07/28 08:10:27;;;;;;;8.00;5.70;;;;;;;25.16;66.16;98028.86;126144;1096;22778;-81
2021/07/28 08:12:54;;;;;;;9.47;5.43;;;;;;;25.26;65.80;98027.58;126289;1097;22773;-81
2021/07/28 08:15:20;;;;;;;10.20;5.88;;;;;;;25.39;65.85;98026.38;125955;1096;22771;-81
2021/07/28 08:17:47;;;;;;;9.30;5.60;;;;;;;25.53;64.27;98027.94;126316;1097;22928;-81
2021/07/28 08:20:14;;;;;;;9.78;5.93;;;;;;;25.67;63.98;98024.75;126542;1097;23623;-81
2021/07/28 08:22:41;;;;;;;9.95;6.35;;;;;;;25.78;63.49;98028.63;125948;1096;23359;-81
2021/07/28 08:25:08;;;;;;;8.60;5.85;;;;;;;25.91;63.98;98024.63;125963;1096;22797;-81
2021/07/28 08:27:36;;;;;;;8.70;5.30;;;;;;;26.05;63.64;98023.42;125870;1096;27253;-81
2021/07/28 08:30:03;;;;;;;7.70;5.23;;;;;;;26.14;63.67;98024.86;125953;1096;22892;-81
2021/07/28 08:32:44;;;;;;;7.80;4.95;;;;;;;26.24;62.55;98015.16;126119;1096;22793;-81
2021/07/28 08:35:11;;;;;;;9.45;4.95;;;;;;;26.38;62.15;98013.88;126117;1096;22854;-81
2021/07/28 08:37:43;;;;;;;10.95;5.35;;;;;;;26.51;61.58;98018.20;125985;1096;22789;-81
2021/07/28 08:40:12;;;;;;;10.05;5.55;;;;;;;26.66;62.26;98009.00;125824;1096;26236;-81
2021/07/28 08:42:44;;;;;;;8.70;5.27;;;;;;;26.81;62.42;98026.13;126020;1095;26309;-82
2021/07/28 08:45:13;;;;;;;11.28;5.58;;;;;;;26.92;59.13;98007.61;125833;1095;22793;-82
2021/07/28 08:47:43;;;;;;;10.38;5.85;;;;;;;27.08;58.67;98013.95;126337;1097;22765;-82
2021/07/28 08:50:12;;;;;;;8.20;5.10;;;;;;;27.24;60.01;98013.09;126378;1096;22967;-82
2021/07/28 08:52:40;;;;;;;9.63;5.58;;;;;;;27.40;59.94;98001.87;125705;1096;26012;-82
2021/07/28 08:55:08;;;;;;;9.05;5.53;;;;;;;27.54;58.11;98006.95;125851;1096;22780;-82
2021/07/28 08:57:35;;;;;;;9.20;5.75;;;;;;;27.64;59.01;98003.53;125668;1095;27522;-82
2021/07/28 09:00:07;;;;;;;9.17;5.03;;;;;;;27.79;58.95;98002.63;125791;1096;22937;-82
2021/07/28 09:02:34;;;;;;;9.43;4.93;;;;;;;28.00;58.79;98001.45;126222;1096;22794;-82
2021/07/28 09:05:01;;;;;;;8.40;5.20;;;;;;;28.18;58.31;98007.36;125739;1097;22773;-82
2021/07/28 09:07:28;;;;;;;9.83;5.15;;;;;;;28.31;57.05;98007.97;125906;1096;22946;-82
2021/07/28 09:10:00;;;;;;;10.03;5.65;;;;;;;28.41;55.14;98008.14;125826;1095;23626;-82
2021/07/28 09:12:35;;;;;;;7.70;4.60;;;;;;;28.48;56.05;98007.45;125778;1096;22784;-82
2021/07/28 09:15:05;;;;;;;13.53;5.25;;;;;;;28.58;55.08;98006.86;125911;1097;22758;-81
2021/07/28 09:17:44;;;;;;;9.10;4.95;;;;;;;28.70;53.61;98008.65;125797;1096;22807;-81
2021/07/28 09:20:23;;;;;;;11.88;4.98;;;;;;;28.86;53.54;98005.69;125671;1097;22817;-82
2021/07/28 09:23:15;;;;;;;10.73;5.25;;;;;;;29.02;54.27;97993.47;125867;1096;22773;-82
2021/07/28 09:25:42;;;;;;;9.10;4.70;;;;;;;29.15;53.24;98006.11;125768;1096;22803;-82
2021/07/28 09:28:25;;;;;;;10.45;4.53;;;;;;;29.22;51.44;97999.79;125818;1096;26232;-81
2021/07/28 09:30:52;;;;;;;10.88;4.80;;;;;;;29.34;50.69;98011.56;125728;1096;27482;-82
2021/07/28 09:33:22;;;;;;;9.33;4.48;;;;;;;29.43;49.44;98005.67;125692;1096;22826;-81
2021/07/28 09:35:52;;;;;;;14.48;4.95;;;;;;;29.51;50.79;98004.55;125934;1096;23348;-81
2021/07/28 09:38:45;;;;;;;10.88;5.08;;;;;;;29.62;49.53;98006.67;125734;1097;23380;-82
2021/07/28 09:41:21;;;;;;;11.58;5.30;;;;;;;29.71;49.16;98002.39;125670;1097;25865;-82
2021/07/28 09:43:52;;;;;;;17.00;5.70;;;;;;;29.78;49.16;98004.47;125723;1096;22896;-82
2021/07/28 09:46:36;;;;;;;9.58;4.85;;;;;;;29.85;48.39;98010.16;125755;1095;22784;-81
2021/07/28 09:49:17;;;;;;;9.60;4.40;;;;;;;29.96;47.17;97998.23;125782;1096;26331;-82
2021/07/28 09:51:47;;;;;;;12.78;5.35;;;;;;;29.98;47.27;97998.66;125825;1096;25963;-81
2021/07/28 09:54:15;;;;;;;10.90;4.83;;;;;;;30.06;47.05;98003.16;125780;1096;22874;-81
2021/07/28 09:56:55;;;;;;;9.68;4.80;;;;;;;30.09;47.53;98000.38;126007;1096;22790;-82
2021/07/28 09:59:22;;;;;;;12.00;5.00;;;;;;;30.15;47.57;97992.41;125771;1095;22908;-81
2021/07/28 10:01:50;;;;;;;7.17;5.07;;;;;;;30.27;47.75;97991.31;125891;1095;22803;-82
2021/07/28 10:04:21;;;;;;;11.48;5.13;;;;;;;30.44;47.66;97992.70;125906;1096;23824;-82
2021/07/28 10:06:53;;;;;;;9.30;4.83;;;;;;;30.61;47.60;97992.00;125987;1096;22867;-81
2021/07/28 10:09:29;;;;;;;10.18;4.85;;;;;;;30.82;46.59;97987.73;125772;1095;22928;-82
2021/07/28 10:11:58;;;;;;;8.95;4.90;;;;;;;30.98;46.54;97991.06;126099;1095;22786;-81
2021/07/28 10:14:27;;;;;;;10.28;5.25;;;;;;;31.12;44.77;97995.17;126101;1096;22844;-82
2021/07/28 10:16:55;;;;;;;8.80;4.78;;;;;;;31.23;44.70;97993.20;126296;1096;22887;-82
2021/07/28 10:19:23;;;;;;;9.73;4.95;;;;;;;31.29;44.51;97988.00;125935;1096;22869;-82
2021/07/28 10:21:51;;;;;;;11.68;5.10;;;;;;;31.38;44.72;97978.01;125979;1096;22806;-82
2021/07/28 10:24:18;;;;;;;9.30;4.77;;;;;;;31.49;44.94;97983.70;125550;1096;23260;-82
2021/07/28 10:26:48;;;;;;;11.08;4.65;;;;;;;31.62;43.97;97980.53;126000;1096;24422;-82
2021/07/28 10:29:16;;;;;;;9.60;4.73;;;;;;;31.71;43.70;97973.30;125413;1097;24591;-82
2021/07/28 10:31:47;;;;;;;9.18;4.70;;;;;;;31.77;41.54;97979.37;126045;1096;22923;-82
2021/07/28 10:34:25;;;;;;;10.20;4.78;;;;;;;31.80;42.92;97978.55;125973;1096;27169;-82
2021/07/28 10:37:08;;;;;;;13.80;5.23;;;;;;;31.87;42.03;97972.92;125986;1096;27166;-82
2021/07/28 10:39:36;;;;;;;;;;;;;;;31.88;41.77;97968.92;125512;1096;22779;-82
2021/07/28 10:42:04;;;;;;;10.30;5.20;;;;;;;31.95;41.30;97974.56;126043;1095;23135;-82
2021/07/28 10:44:51;;;;;;;11.93;5.18;;;;;;;31.98;40.75;97973.77;125598;1096;22873;-82
2021/07/28 10:47:32;;;;;;;8.13;4.47;;;;;;;32.03;40.11;97974.56;125960;1096;24306;-82
2021/07/28 10:49:59;;;;;;;12.10;5.10;;;;;;;32.01;41.37;97974.17;126002;1096;22755;-82
2021/07/28 10:52:45;;;;;;;;;;;;;;;32.12;42.29;97975.83;125626;1096;22794;-82
2021/07/28 10:55:12;;;;;;;11.33;5.30;;;;;;;32.23;40.39;97967.38;125973;1096;26305;-82
2021/07/28 10:57:44;;;;;;;12.70;4.55;;;;;;;31.98;39.35;97972.97;125646;1097;22876;-82
2021/07/28 11:00:33;;;;;;;10.28;5.03;;;;;;;31.83;41.55;97968.52;125624;1096;24418;-82
2021/07/28 11:02:59;;;;;;;9.83;5.25;;;;;;;31.92;41.24;97980.98;126052;1096;26258;-82
2021/07/28 11:05:31;;;;;;;8.70;4.35;;;;;;;32.04;40.70;97965.75;125532;1096;24443;-82
2021/07/28 11:08:01;;;;;;;9.13;4.78;;;;;;;32.19;41.30;97965.75;126135;1096;26002;-81
2021/07/28 11:10:32;;;;;;;14.43;5.00;;;;;;;32.17;42.42;97968.97;125988;1096;22928;-82
2021/07/28 11:13:07;;;;;;;12.23;4.87;;;;;;;32.21;41.19;97966.16;126073;1096;24415;-82
2021/07/28 11:15:36;;;;;;;10.40;4.68;;;;;;;32.26;39.91;97957.30;126094;1096;22822;-82
2021/07/28 11:18:04;;;;;;;10.67;4.97;;;;;;;32.38;40.50;97962.53;125834;1096;23165;-83
2021/07/28 11:20:30;;;;;;;;;;;;;;;32.53;40.12;97960.52;125825;1096;27335;-82
2021/07/28 11:23:27;;;;;;;9.83;4.68;;;;;;;32.68;39.89;97961.33;126372;1095;21543;-82
2021/07/28 11:25:56;;;;;;;11.43;4.68;;;;;;;32.78;39.91;97963.33;126021;1095;22825;-82
2021/07/28 11:28:24;;;;;;;8.30;5.00;;;;;;;32.91;39.46;97958.84;125995;1095;23379;-82
2021/07/28 11:30:59;;;;;;;10.13;4.68;;;;;;;32.99;38.93;97961.64;125944;1096;22896;-82
2021/07/28 11:33:29;;;;;;;9.63;4.55;;;;;;;33.06;38.96;97962.45;126395;1096;22770;-82